Time;durP1;ratioP1;P1;durP2;ratioP2;P2;SDS_P1;SDS_P2;PMS_P1;PMS_P2;Temp;Humidity;BMP_temperature;BMP_pressure;BME280_temperature;BME280_humidity;BME280_pressure;Samples;Min_cycle;Max_cycle;Signal;HPM_P1;HPM_P2
2022/06/07 00:00:39;;;;;;;0.70;0.70;;;;;;;17.99;100.00;100912.84;2617667;54;20176;-66
2022/06/07 00:03:09;;;;;;;0.28;0.28;;;;;;;18.27;100.00;100911.25;2617956;54;20145;-65
2022/06/07 00:05:41;;;;;;;0.80;0.80;;;;;;;18.65;100.00;100905.22;2618205;39;20557;-65
2022/06/07 00:08:16;;;;;;;1.05;0.85;;;;;;;18.79;100.00;100914.47;2617726;54;20161;-65
2022/06/07 00:10:47;;;;;;;0.73;0.73;;;;;;;18.75;100.00;100906.03;2617684;54;20141;-65
2022/06/07 00:13:18;;;;;;;1.77;1.67;;;;;;;19.12;100.00;100904.31;2617802;54;20168;-65
2022/06/07 00:15:49;;;;;;;0.82;0.82;;;;;;;19.63;100.00;100898.63;2617723;54;20138;-65
2022/06/07 00:18:19;;;;;;;0.32;0.32;;;;;;;19.92;100.00;100892.38;2617660;46;20150;-65
2022/06/07 00:20:50;;;;;;;1.42;1.33;;;;;;;19.65;100.00;100893.22;2617541;54;20148;-65
2022/06/07 00:23:23;;;;;;;1.27;1.27;;;;;;;20.02;100.00;100887.91;2617914;54;20142;-65
2022/06/07 00:25:56;;;;;;;2.10;1.90;;;;;;;20.28;100.00;100890.63;2617574;54;20196;-65
2022/06/07 00:28:26;;;;;;;0.90;0.75;;;;;;;20.54;100.00;100894.22;2617629;54;20165;-65
2022/06/07 00:30:58;;;;;;;0.82;0.82;;;;;;;20.29;100.00;100894.97;2617585;54;20164;-65
2022/06/07 00:33:28;;;;;;;0.00;0.00;;;;;;;19.91;100.00;100894.19;2617820;54;20213;-65
2022/06/07 00:35:59;;;;;;;0.22;0.22;;;;;;;19.74;100.00;100900.22;2617689;54;20141;-65
2022/06/07 00:38:32;;;;;;;0.38;0.38;;;;;;;20.31;100.00;100903.53;2617751;54;20149;-65
2022/06/07 00:41:03;;;;;;;0.05;0.05;;;;;;;20.22;100.00;100899.94;2617632;54;20138;-65
2022/06/07 00:43:33;;;;;;;0.10;0.10;;;;;;;19.84;100.00;100898.41;2617629;47;20141;-66
2022/06/07 00:46:08;;;;;;;0.35;0.35;;;;;;;19.58;100.00;100900.88;2617908;39;20543;-66
2022/06/07 00:48:39;;;;;;;0.10;0.10;;;;;;;19.86;100.00;100901.69;2617518;54;20173;-65
2022/06/07 00:51:14;;;;;;;0.00;0.00;;;;;;;19.65;100.00;100906.41;2617224;54;20172;-65
2022/06/07 00:53:47;;;;;;;2.00;1.60;;;;;;;19.20;100.00;100914.13;2618213;39;20566;-65
2022/06/07 00:56:17;;;;;;;1.10;0.90;;;;;;;18.61;100.00;100914.34;2617368;54;20148;-65
2022/06/07 00:58:48;;;;;;;1.40;1.20;;;;;;;18.49;100.00;100910.16;2617584;54;20145;-65
2022/06/07 01:01:18;;;;;;;0.50;0.50;;;;;;;18.68;100.00;100912.81;2617330;54;20438;-65
2022/06/07 01:03:49;;;;;;;0.95;0.47;;;;;;;18.51;100.00;100913.47;2617656;54;20674;-65
2022/06/07 01:11:46;;;;;;;0.63;0.63;;;;;;;20.44;100.00;100904.81;2617544;54;20140;-66
2022/06/07 01:14:17;;;;;;;0.50;0.50;;;;;;;21.05;100.00;100900.53;2617665;54;20145;-65
2022/06/07 01:16:47;;;;;;;0.00;0.00;;;;;;;21.12;100.00;100893.69;2617477;54;20146;-65
2022/06/07 01:19:17;;;;;;;1.05;1.02;;;;;;;21.42;100.00;100890.56;2617496;54;20149;-65
2022/06/07 01:21:50;;;;;;;0.20;0.20;;;;;;;21.41;100.00;100888.91;2617469;54;20167;-65
2022/06/07 01:24:21;;;;;;;0.88;0.40;;;;;;;21.88;100.00;100891.91;2617947;39;20560;-66
2022/06/07 01:26:53;;;;;;;0.00;0.00;;;;;;;22.29;100.00;100891.03;2617361;47;20153;-65
2022/06/07 01:29:24;;;;;;;0.15;0.15;;;;;;;21.41;100.00;100881.81;2617464;54;20145;-66
2022/06/07 01:31:54;;;;;;;0.22;0.22;;;;;;;21.52;100.00;100882.50;2617560;47;20156;-65
2022/06/07 01:34:25;;;;;;;0.00;0.00;;;;;;;21.63;100.00;100883.06;2617558;47;20146;-65
2022/06/07 01:37:00;;;;;;;0.00;0.00;;;;;;;21.93;100.00;100887.81;2617403;54;20165;-66
2022/06/07 01:42:14;;;;;;;0.00;0.00;;;;;;;22.93;100.00;100872.72;2617393;54;20142;-66
2022/06/07 01:44:47;;;;;;;0.00;0.00;;;;;;;22.75;100.00;100875.53;2617426;54;20134;-66
2022/06/07 01:47:19;;;;;;;0.00;0.00;;;;;;;22.75;100.00;100871.06;2617388;54;20164;-66
2022/06/07 01:49:50;;;;;;;0.15;0.15;;;;;;;21.60;100.00;100878.09;2617256;54;20149;-65
2022/06/07 01:52:26;;;;;;;0.40;0.40;;;;;;;21.83;100.00;100889.72;2617101;54;20173;-65
2022/06/07 01:54:56;;;;;;;0.00;0.00;;;;;;;22.18;100.00;100885.25;2617479;54;20148;-65
2022/06/07 01:57:27;;;;;;;0.43;0.43;;;;;;;22.27;100.00;100889.53;2617432;47;20150;-66
2022/06/07 01:59:58;;;;;;;0.00;0.00;;;;;;;22.13;100.00;100880.44;2617487;54;20668;-66
2022/06/07 02:02:28;;;;;;;0.68;0.68;;;;;;;22.04;100.00;100889.34;2617503;54;20145;-66
2022/06/07 02:04:59;;;;;;;0.43;0.43;;;;;;;21.73;100.00;100877.66;2617416;47;20154;-65
2022/06/07 02:07:32;;;;;;;0.17;0.17;;;;;;;21.63;100.00;100890.16;2617487;54;20677;-66
2022/06/07 02:10:02;;;;;;;1.65;0.55;;;;;;;22.12;100.00;100893.81;2617386;54;20134;-65
2022/06/07 02:12:33;;;;;;;0.00;0.00;;;;;;;22.44;100.00;100885.09;2617247;54;20141;-65
2022/06/07 02:15:03;;;;;;;0.00;0.00;;;;;;;22.63;100.00;100890.09;2617287;47;20495;-65
2022/06/07 02:17:34;;;;;;;0.93;0.35;;;;;;;22.70;100.00;100884.00;2617237;54;20142;-65
2022/06/07 02:20:04;;;;;;;0.30;0.30;;;;;;;22.38;100.00;100890.06;2617171;54;20165;-65
2022/06/07 02:22:37;;;;;;;0.00;0.00;;;;;;;21.94;100.00;100891.31;2617242;54;20142;-66
2022/06/07 02:25:09;;;;;;;0.52;0.52;;;;;;;19.77;100.00;100894.69;2617137;47;20658;-66
2022/06/07 02:27:39;;;;;;;1.80;1.58;;;;;;;19.04;100.00;100906.00;2617294;47;20145;-66
2022/06/07 02:30:11;;;;;;;0.80;0.75;;;;;;;18.47;100.00;100909.47;2616977;54;20152;-65
2022/06/07 02:32:42;;;;;;;2.45;1.48;;;;;;;18.16;100.00;100899.06;2617177;54;20140;-65
2022/06/07 02:35:12;;;;;;;1.08;1.08;;;;;;;18.17;100.00;100905.97;2617428;39;20533;-65
2022/06/07 02:37:46;;;;;;;0.25;0.25;;;;;;;17.95;100.00;100900.13;2617144;47;20153;-66
2022/06/07 02:40:17;;;;;;;1.38;1.27;;;;;;;18.00;100.00;100905.81;2617688;39;20571;-65
2022/06/07 02:42:47;;;;;;;1.20;0.98;;;;;;;18.23;100.00;100899.34;2617009;54;20229;-65
2022/06/07 02:45:17;;;;;;;0.80;0.32;;;;;;;18.25;100.00;100903.47;2617246;54;20148;-65
2022/06/07 02:47:47;;;;;;;1.20;1.02;;;;;;;18.20;100.00;100899.63;2617145;54;20173;-65
2022/06/07 02:50:18;;;;;;;1.05;1.05;;;;;;;18.31;100.00;100896.03;2617637;54;20156;-66
2022/06/07 02:52:51;;;;;;;1.65;1.13;;;;;;;18.36;100.00;100893.84;2617060;54;20193;-66
2022/06/07 02:55:22;;;;;;;0.47;0.47;;;;;;;18.43;100.00;100902.81;2617354;54;20141;-65
2022/06/07 02:57:52;;;;;;;1.85;0.68;;;;;;;18.14;100.00;100906.25;2617317;54;20156;-65
2022/06/07 03:00:22;;;;;;;0.65;0.65;;;;;;;18.04;100.00;100900.16;2617314;54;20142;-66
2022/06/07 03:02:52;;;;;;;0.57;0.52;;;;;;;18.06;100.00;100906.09;2617055;47;20149;-65
2022/06/07 03:05:23;;;;;;;1.23;1.17;;;;;;;18.08;100.00;100908.59;2618089;54;20145;-65
2022/06/07 03:07:56;;;;;;;0.90;0.70;;;;;;;18.21;100.00;100904.72;2618196;39;20589;-65
2022/06/07 03:10:26;;;;;;;0.20;0.15;;;;;;;18.20;100.00;100910.13;2618029;54;20142;-65
2022/06/07 03:12:56;;;;;;;0.60;0.60;;;;;;;18.25;100.00;100913.19;2618161;54;20152;-65
2022/06/07 03:15:27;;;;;;;0.60;0.60;;;;;;;18.51;100.00;100908.22;2617966;54;20650;-66
2022/06/07 03:17:57;;;;;;;1.20;1.20;;;;;;;18.29;100.00;100909.31;2617871;54;21096;-66
2022/06/07 03:20:27;;;;;;;0.50;0.50;;;;;;;18.27;100.00;100913.03;2618049;54;20169;-65
2022/06/07 03:23:00;;;;;;;1.05;0.82;;;;;;;18.21;100.00;100896.84;2618067;39;20525;-66
2022/06/07 03:25:31;;;;;;;0.60;0.60;;;;;;;18.65;100.00;100906.06;2617904;54;20684;-66
2022/06/07 03:28:01;;;;;;;0.20;0.20;;;;;;;18.65;100.00;100902.59;2617731;54;20666;-65
2022/06/07 03:30:31;;;;;;;1.52;0.73;;;;;;;18.79;100.00;100899.53;2617725;54;20134;-65
2022/06/07 03:33:01;;;;;;;1.17;1.17;;;;;;;18.85;100.00;100901.59;2616140;54;20157;-66
2022/06/07 03:35:32;;;;;;;0.03;0.03;;;;;;;18.86;100.00;100910.31;2617725;54;20141;-66
2022/06/07 03:38:05;;;;;;;0.82;0.50;;;;;;;19.08;100.00;100904.75;2617336;54;20169;-66
2022/06/07 03:40:48;;;;;;;1.13;0.70;;;;;;;18.80;100.00;100916.13;2617989;39;20579;-65
2022/06/07 03:43:18;;;;;;;0.68;0.68;;;;;;;18.65;100.00;100915.72;2616545;54;20165;-65
2022/06/07 03:45:48;;;;;;;2.75;1.88;;;;;;;18.59;100.00;100909.22;2616264;47;20149;-65
2022/06/07 03:48:19;;;;;;;0.82;0.68;;;;;;;18.84;100.00;100915.72;2616281;54;20188;-65
2022/06/07 03:50:49;;;;;;;0.30;0.30;;;;;;;19.08;100.00;100902.94;2616134;54;20157;-66
2022/06/07 03:53:23;;;;;;;2.40;1.98;;;;;;;18.76;100.00;100907.69;2616540;54;20157;-65
2022/06/07 03:55:56;;;;;;;0.75;0.43;;;;;;;18.54;100.00;100907.97;2616571;54;20152;-65
2022/06/07 03:58:26;;;;;;;0.60;0.60;;;;;;;18.58;100.00;100917.22;2616948;39;20433;-65
2022/06/07 04:01:00;;;;;;;0.43;0.43;;;;;;;18.84;100.00;100917.50;2617189;54;20157;-65
2022/06/07 04:03:32;;;;;;;2.35;1.65;;;;;;;19.13;100.00;100913.88;2617347;47;20141;-65
2022/06/07 04:06:03;;;;;;;2.45;0.75;;;;;;;19.25;100.00;100916.34;2617123;54;20169;-65
2022/06/07 04:08:36;;;;;;;0.43;0.43;;;;;;;19.39;100.00;100914.06;2617305;47;20142;-65
2022/06/07 04:11:06;;;;;;;0.50;0.43;;;;;;;19.94;100.00;100911.53;2617072;54;20149;-65
2022/06/07 04:13:37;;;;;;;0.73;0.73;;;;;;;20.10;100.00;100906.41;2617192;54;20146;-66
2022/06/07 04:16:12;;;;;;;2.72;1.88;;;;;;;19.53;100.00;100900.50;2616527;54;20169;-65
2022/06/07 04:18:43;;;;;;;0.80;0.80;;;;;;;19.27;100.00;100899.44;2617707;54;20166;-65
2022/06/07 04:21:14;;;;;;;0.80;0.80;;;;;;;19.16;100.00;100900.44;2618314;39;20954;-65
2022/06/07 04:23:47;;;;;;;1.95;0.95;;;;;;;19.13;100.00;100899.91;2616936;54;20154;-65
2022/06/07 04:26:22;;;;;;;1.85;1.40;;;;;;;19.09;100.00;100903.78;2616765;54;20149;-65
2022/06/07 04:28:52;;;;;;;0.32;0.32;;;;;;;19.40;100.00;100897.31;2616959;54;20177;-65
2022/06/07 04:31:25;;;;;;;0.10;0.10;;;;;;;19.33;100.00;100893.59;2616430;54;20673;-66
2022/06/07 04:33:58;;;;;;;0.20;0.15;;;;;;;19.69;100.00;100885.88;2616751;54;20219;-65
2022/06/07 04:36:30;;;;;;;0.28;0.28;;;;;;;19.80;100.00;100883.03;2616784;50;20141;-65
2022/06/07 04:39:09;;;;;;;1.50;1.40;;;;;;;19.35;100.00;100899.53;2616385;54;20200;-66
2022/06/07 04:41:44;;;;;;;0.88;0.88;;;;;;;19.27;100.00;100890.69;2615937;54;20157;-66
2022/06/07 04:44:19;;;;;;;0.88;0.88;;;;;;;19.39;100.00;100897.44;2615792;54;20160;-65
2022/06/07 04:46:54;;;;;;;1.92;1.70;;;;;;;19.06;100.00;100889.09;2615329;54;20176;-66
2022/06/07 04:49:29;;;;;;;0.88;0.88;;;;;;;19.20;100.00;100873.84;2615125;54;20561;-66
2022/06/07 04:52:06;;;;;;;1.60;1.02;;;;;;;19.07;100.00;100906.53;2616960;54;20152;-64
2022/06/07 04:54:44;;;;;;;2.47;2.03;;;;;;;19.02;100.00;100902.66;2615644;54;20164;-64
2022/06/07 04:57:19;;;;;;;2.35;1.20;;;;;;;19.46;100.00;100902.03;2615754;54;20148;-65
2022/06/07 04:59:54;;;;;;;1.40;1.33;;;;;;;19.41;100.00;100900.78;2616226;54;20164;-65
2022/06/07 05:02:29;;;;;;;4.55;2.50;;;;;;;19.57;100.00;100877.34;2615804;54;20708;-64
2022/06/07 05:05:05;;;;;;;1.10;0.70;;;;;;;19.71;100.00;100905.78;2615794;54;20196;-64
2022/06/07 05:07:40;;;;;;;0.93;0.93;;;;;;;19.55;100.00;100909.06;2615617;54;20187;-67
2022/06/07 05:10:19;;;;;;;0.68;0.68;;;;;;;19.78;100.00;100912.13;2615399;54;20156;-65
2022/06/07 05:12:54;;;;;;;0.63;0.63;;;;;;;19.58;100.00;100913.19;2615343;54;20180;-65
2022/06/07 05:15:30;;;;;;;0.80;0.80;;;;;;;18.98;100.00;100928.41;2615454;54;20172;-66
2022/06/07 05:18:07;;;;;;;1.02;0.90;;;;;;;18.73;100.00;100918.50;2615457;54;20188;-65
2022/06/07 05:20:42;;;;;;;1.85;1.25;;;;;;;18.53;100.00;100936.06;2615310;54;20180;-66
2022/06/07 19:51:58;;;;;;;0.30;0.30;;;;;;;22.01;100.00;100654.47;2560522;54;20216;-65
2022/06/07 19:54:31;;;;;;;0.20;0.20;;;;;;;21.99;100.00;100650.38;2617222;54;20141;-66
2022/06/07 19:57:04;;;;;;;2.47;1.58;;;;;;;21.91;100.00;100646.72;2617306;54;20142;-67
2022/06/07 19:59:36;;;;;;;1.23;1.17;;;;;;;21.84;100.00;100648.34;2617320;54;20140;-66
2022/06/07 20:02:07;;;;;;;1.70;1.67;;;;;;;21.88;100.00;100654.97;2617676;39;20569;-67
2022/06/07 20:04:39;;;;;;;9.70;1.10;;;;;;;21.53;100.00;100660.56;2617062;54;20149;-66
2022/06/07 20:07:12;;;;;;;0.98;0.63;;;;;;;21.13;100.00;100655.22;2616544;54;20153;-65
2022/06/07 20:09:43;;;;;;;0.63;0.63;;;;;;;20.84;100.00;100664.31;2616734;39;20583;-65
2022/06/07 20:12:14;;;;;;;0.70;0.70;;;;;;;20.70;100.00;100661.47;2617317;54;20138;-66
2022/06/07 20:14:45;;;;;;;0.00;0.00;;;;;;;20.82;100.00;100655.72;2617259;54;20142;-64
2022/06/07 20:17:15;;;;;;;0.00;0.00;;;;;;;21.20;100.00;100662.31;2617298;47;20141;-66
2022/06/07 20:19:46;;;;;;;0.20;0.20;;;;;;;20.83;100.00;100665.31;2617131;54;20141;-65
2022/06/07 20:22:19;;;;;;;0.00;0.00;;;;;;;20.50;100.00;100660.88;2617692;39;20566;-66
2022/06/07 20:24:49;;;;;;;0.00;0.00;;;;;;;20.04;100.00;100652.34;2617286;54;20161;-66
2022/06/07 20:27:19;;;;;;;1.02;0.98;;;;;;;19.69;100.00;100659.47;2617134;47;20149;-66
2022/06/07 20:29:50;;;;;;;0.30;0.30;;;;;;;19.68;100.00;100657.81;2617635;39;20545;-65
2022/06/07 20:32:20;;;;;;;0.00;0.00;;;;;;;19.61;100.00;100655.78;2617139;54;20160;-65
2022/06/07 20:34:50;;;;;;;0.20;0.20;;;;;;;19.64;100.00;100646.75;2617657;39;20654;-66
2022/06/07 20:37:23;;;;;;;0.00;0.00;;;;;;;19.88;100.00;100660.13;2617250;54;20134;-65
2022/06/07 20:39:54;;;;;;;0.10;0.10;;;;;;;20.54;100.00;100667.50;2617231;54;20149;-66
2022/06/07 20:42:44;;;;;;;0.00;0.00;;;;;;;20.73;100.00;100666.41;2617278;46;20682;-67
2022/06/07 20:45:14;;;;;;;0.10;0.10;;;;;;;21.16;100.00;100657.53;2616985;47;20678;-66
2022/06/07 20:47:44;;;;;;;0.05;0.05;;;;;;;21.01;100.00;100654.66;2617146;54;20172;-65
2022/06/07 20:50:17;;;;;;;0.20;0.20;;;;;;;21.16;100.00;100653.06;2617419;54;20153;-65
2022/06/07 20:52:50;;;;;;;0.00;0.00;;;;;;;21.38;100.00;100656.94;2617768;54;20184;-65
2022/06/07 20:55:20;;;;;;;0.80;0.80;;;;;;;21.04;100.00;100659.59;2617792;54;20177;-66
2022/06/07 20:57:50;;;;;;;0.10;0.10;;;;;;;20.99;100.00;100654.81;2617739;54;20189;-65
2022/06/07 21:00:21;;;;;;;1.42;0.17;;;;;;;20.99;100.00;100651.34;2617708;54;20142;-65
2022/06/07 21:02:51;;;;;;;0.10;0.10;;;;;;;21.28;100.00;100650.94;2617784;54;20148;-65
2022/06/07 21:05:22;;;;;;;0.75;0.73;;;;;;;21.22;100.00;100652.44;2617765;54;20148;-66
2022/06/07 21:07:55;;;;;;;0.00;0.00;;;;;;;21.24;100.00;100644.34;2617820;54;20133;-66
2022/06/07 21:10:26;;;;;;;0.35;0.32;;;;;;;21.37;100.00;100639.44;2617607;54;20146;-65
2022/06/07 21:12:56;;;;;;;0.00;0.00;;;;;;;21.44;100.00;100638.59;2617629;54;20141;-65
2022/06/07 21:15:27;;;;;;;0.00;0.00;;;;;;;21.08;100.00;100639.84;2617612;54;20148;-65
2022/06/07 21:17:57;;;;;;;0.30;0.30;;;;;;;20.28;100.00;100637.66;2617615;54;20150;-65
2022/06/07 21:20:30;;;;;;;0.63;0.57;;;;;;;19.68;100.00;100637.56;2617462;54;20153;-65
2022/06/07 21:23:03;;;;;;;2.30;1.05;;;;;;;19.08;100.00;100645.19;2617664;54;20149;-66
2022/06/07 21:25:36;;;;;;;0.40;0.40;;;;;;;19.09;100.00;100644.22;2617500;47;20141;-66
2022/06/07 21:28:08;;;;;;;0.03;0.03;;;;;;;19.37;100.00;100629.22;2617642;54;20172;-66
2022/06/07 21:30:40;;;;;;;0.13;0.13;;;;;;;19.92;100.00;100639.56;2617369;54;20138;-65
2022/06/07 21:33:11;;;;;;;0.10;0.10;;;;;;;20.38;100.00;100643.69;2617532;54;20650;-65
2022/06/07 21:35:42;;;;;;;0.00;0.00;;;;;;;20.88;100.00;100639.28;2617413;47;20142;-65
2022/06/07 21:38:15;;;;;;;0.22;0.22;;;;;;;21.30;100.00;100631.34;2617404;54;20217;-67
2022/06/07 21:40:47;;;;;;;0.00;0.00;;;;;;;21.28;100.00;100635.94;2617254;54;20674;-66
2022/06/07 21:43:19;;;;;;;0.08;0.08;;;;;;;20.49;100.00;100635.50;2617448;54;20152;-66
2022/06/07 21:45:51;;;;;;;0.30;0.30;;;;;;;19.75;100.00;100633.34;2617552;54;20141;-65
2022/06/07 21:48:24;;;;;;;0.43;0.35;;;;;;;19.25;100.00;100632.22;2617361;54;20185;-65
2022/06/07 21:50:56;;;;;;;0.25;0.25;;;;;;;19.09;100.00;100635.50;2617825;39;20544;-65
2022/06/07 21:53:30;;;;;;;0.43;0.38;;;;;;;19.00;100.00;100629.31;2617860;39;20549;-65
2022/06/07 21:56:00;;;;;;;1.30;1.30;;;;;;;18.67;100.00;100619.41;2617261;54;20141;-66
2022/06/07 21:58:31;;;;;;;0.47;0.47;;;;;;;18.30;100.00;100589.66;2617403;54;20141;-65
2022/06/07 22:01:02;;;;;;;1.48;1.38;;;;;;;18.50;100.00;100607.00;2617211;54;20142;-65
2022/06/07 22:03:33;;;;;;;3.03;1.73;;;;;;;18.57;100.00;100608.13;2617214;54;20142;-65
2022/06/07 22:06:04;;;;;;;2.90;1.50;;;;;;;18.89;100.00;100608.50;2617110;54;20141;-66
2022/06/07 22:08:40;;;;;;;3.65;1.83;;;;;;;19.40;100.00;100604.41;2617252;54;20161;-66
2022/06/07 22:11:14;;;;;;;0.95;0.75;;;;;;;20.65;100.00;100592.56;2617246;54;20660;-67
2022/06/07 22:13:46;;;;;;;0.13;0.13;;;;;;;21.57;100.00;100595.06;2617305;47;20145;-65
2022/06/07 22:16:18;;;;;;;2.65;2.38;;;;;;;21.74;100.00;100594.88;2617342;54;20152;-66
2022/06/07 22:18:49;;;;;;;0.20;0.20;;;;;;;20.96;100.00;100589.19;2617251;46;20178;-66
2022/06/07 22:21:19;;;;;;;1.67;1.58;;;;;;;20.93;100.00;100599.25;2617694;39;20550;-65
2022/06/07 22:23:52;;;;;;;1.50;1.10;;;;;;;20.67;100.00;100609.88;2617107;47;20211;-65
2022/06/07 22:26:22;;;;;;;0.65;0.35;;;;;;;20.85;100.00;100592.13;2617294;54;20145;-65
2022/06/07 22:31:35;;;;;;;2.17;1.05;;;;;;;20.41;100.00;100603.84;2617192;54;20151;-66
2022/06/07 22:34:06;;;;;;;2.25;2.10;;;;;;;20.30;100.00;100601.47;2618079;39;20557;-66
2022/06/07 22:36:36;;;;;;;0.73;0.52;;;;;;;20.01;100.00;100597.34;2617112;54;20167;-65
2022/06/07 22:39:09;;;;;;;1.92;1.83;;;;;;;19.60;100.00;100585.69;2617215;54;20176;-66
2022/06/07 22:41:39;;;;;;;2.63;2.30;;;;;;;19.72;100.00;100574.91;2617213;54;20153;-65
2022/06/07 22:44:11;;;;;;;1.30;0.63;;;;;;;20.47;100.00;100576.81;2617560;39;20573;-66
2022/06/07 22:46:41;;;;;;;1.67;1.58;;;;;;;20.62;100.00;100577.91;2617000;54;20141;-65
2022/06/07 22:49:12;;;;;;;5.57;2.38;;;;;;;20.27;100.00;100570.13;2616909;54;20191;-65
2022/06/07 22:51:44;;;;;;;1.98;0.75;;;;;;;20.41;100.00;100561.66;2617143;54;20173;-65
2022/06/07 22:54:22;;;;;;;0.00;0.00;;;;;;;20.68;100.00;100560.59;2617267;54;20148;-64
2022/06/07 22:56:53;;;;;;;1.95;0.80;;;;;;;20.85;100.00;100557.84;2617126;54;20145;-64
2022/06/07 22:59:27;;;;;;;0.00;0.00;;;;;;;20.84;100.00;100564.09;2617304;54;20142;-65
2022/06/07 23:01:58;;;;;;;1.73;1.48;;;;;;;21.05;100.00;100560.19;2616978;54;20141;-65
2022/06/07 23:04:34;;;;;;;0.50;0.50;;;;;;;21.00;100.00;100558.03;2617147;54;20142;-66
2022/06/07 23:07:09;;;;;;;2.33;2.13;;;;;;;21.05;100.00;100557.53;2616854;48;20142;-65
2022/06/07 23:09:42;;;;;;;0.50;0.50;;;;;;;21.17;100.00;100558.91;2616997;51;20143;-65
2022/06/07 23:12:12;;;;;;;1.55;1.45;;;;;;;21.29;100.00;100552.31;2617504;39;20193;-65
2022/06/07 23:17:25;;;;;;;3.75;3.25;;;;;;;20.32;100.00;100570.50;2617176;54;20172;-65
2022/06/07 23:19:58;;;;;;;6.22;2.95;;;;;;;20.04;100.00;100564.56;2616822;54;20697;-65
2022/06/07 23:22:31;;;;;;;1.15;1.10;;;;;;;20.13;100.00;100568.09;2617781;54;20134;-66
2022/06/07 23:25:06;;;;;;;1.75;1.65;;;;;;;20.36;100.00;100574.47;2617747;54;20527;-65
2022/06/07 23:27:36;;;;;;;1.45;1.35;;;;;;;19.80;100.00;100567.91;2618098;54;20145;-66
2022/06/07 23:30:10;;;;;;;5.20;3.72;;;;;;;19.66;100.00;100575.53;2618202;39;20579;-66
2022/06/07 23:32:40;;;;;;;2.38;2.00;;;;;;;19.96;100.00;100568.00;2617896;54;20146;-65
2022/06/07 23:35:11;;;;;;;6.50;4.10;;;;;;;19.98;100.00;100575.75;2617930;54;20156;-65
2022/06/07 23:37:42;;;;;;;4.15;2.13;;;;;;;20.19;100.00;100577.97;2617769;54;20162;-66
2022/06/07 23:40:19;;;;;;;0.55;0.55;;;;;;;20.64;100.00;100577.72;2617923;54;20145;-66
2022/06/07 23:42:49;;;;;;;0.00;0.00;;;;;;;21.72;100.00;100577.53;2617871;54;20149;-65
2022/06/07 23:45:20;;;;;;;0.00;0.00;;;;;;;22.60;100.00;100578.28;2617963;54;20148;-65
2022/06/07 23:47:55;;;;;;;0.57;0.57;;;;;;;22.81;100.00;100568.81;2617762;54;20177;-65
2022/06/07 23:50:33;;;;;;;0.00;0.00;;;;;;;22.07;100.00;100557.84;2617626;54;20199;-66
2022/06/07 23:53:06;;;;;;;6.82;1.02;;;;;;;20.96;100.00;100560.16;2617919;54;20185;-65
2022/06/07 23:55:42;;;;;;;0.10;0.10;;;;;;;21.13;100.00;100568.13;2617333;54;20141;-65
2022/06/07 23:58:14;;;;;;;1.65;0.85;;;;;;;20.31;100.00;100571.50;2617779;54;20152;-65
